createdAt,value
2019-02-24T00:00:46.692Z,100121.52
2019-02-24T00:03:21.440Z,100118.51
2019-02-24T00:05:53.303Z,100113.81
2019-02-24T00:08:27.671Z,100108.25
2019-02-24T00:11:01.618Z,100108.41
2019-02-24T00:13:33.446Z,100098.98
2019-02-24T00:16:08.437Z,100110.59
2019-02-24T00:18:45.270Z,100106.72
2019-02-24T00:21:19.917Z,100105.01
2019-02-24T00:23:51.757Z,100095.16
2019-02-24T00:26:23.626Z,100089.64
2019-02-24T00:28:55.470Z,100090.52
2019-02-24T00:31:27.324Z,100090.48
2019-02-24T00:34:01.612Z,100090.43
2019-02-24T00:36:40.307Z,100101.14
2019-02-24T00:39:13.317Z,100093.03
2019-02-24T00:41:52.327Z,100088.33
2019-02-24T00:44:33.909Z,100081.41
2019-02-24T00:47:10.839Z,100083.10
2019-02-24T00:49:42.678Z,100082.67
2019-02-24T00:52:17.580Z,100074.95
2019-02-24T00:54:52.811Z,100079.73
2019-02-24T00:57:25.734Z,100084.37
2019-02-24T00:59:59.077Z,100073.29
2019-02-24T01:02:34.056Z,100075.06
2019-02-24T01:05:11.309Z,100070.00
2019-02-24T01:07:43.145Z,100063.75
2019-02-24T01:10:15.005Z,100063.36
2019-02-24T01:12:48.153Z,100069.04
2019-02-24T01:15:21.619Z,100062.67
2019-02-24T01:18:00.996Z,100063.60
2019-02-24T01:20:36.013Z,100059.77
2019-02-24T01:23:07.834Z,100054.27
2019-02-24T01:25:39.660Z,100060.32
2019-02-24T01:28:11.521Z,100056.91
2019-02-24T01:30:45.984Z,100052.12
2019-02-24T01:33:24.243Z,100051.38
2019-02-24T01:35:58.228Z,100051.34
2019-02-24T01:38:30.087Z,100043.19
2019-02-24T01:41:03.494Z,100044.09
2019-02-24T01:43:35.314Z,100049.23
2019-02-24T01:46:07.148Z,100040.61
2019-02-24T01:48:40.680Z,100038.00
2019-02-24T01:51:15.436Z,100040.22
2019-02-24T01:53:48.347Z,100027.76
2019-02-24T01:56:22.938Z,100029.03
2019-02-24T01:58:56.427Z,100024.33
2019-02-24T02:01:30.759Z,100021.73
2019-02-24T02:04:05.673Z,100017.38
2019-02-24T02:06:37.531Z,100013.10
2019-02-24T02:09:11.659Z,100015.22
2019-02-24T02:11:46.424Z,100016.48
2019-02-24T02:14:23.031Z,100010.45
2019-02-24T02:16:54.871Z,100005.67
2019-02-24T02:19:26.712Z,100010.77
2019-02-24T02:21:59.876Z,100004.02
2019-02-24T02:24:35.632Z,100008.30
2019-02-24T02:27:08.581Z,100008.28
2019-02-24T02:29:40.411Z,100009.52
2019-02-24T02:32:16.177Z,100003.94
2019-02-24T02:34:48.187Z,100009.94
2019-02-24T02:37:22.581Z,100009.90
2019-02-24T02:39:54.431Z,100005.59
2019-02-24T02:42:26.281Z,100010.36
2019-02-24T02:44:58.137Z,100008.62
2019-02-24T02:47:33.247Z,100005.20
2019-02-24T02:50:05.254Z,100003.50
2019-02-24T02:52:40.915Z,99996.20
2019-02-24T02:55:12.725Z,99996.17
2019-02-24T02:57:44.555Z,100000.05
2019-02-24T03:00:33.946Z,99994.95
2019-02-24T03:03:06.016Z,99986.01
2019-02-24T03:05:49.902Z,99986.12
2019-02-24T03:08:42.168Z,99987.38
2019-02-24T03:11:17.777Z,99992.91
2019-02-24T03:13:53.472Z,99984.31
2019-02-24T03:16:32.092Z,99985.20
2019-02-24T03:19:06.802Z,99985.22
2019-02-24T03:21:38.609Z,99987.39
2019-02-24T03:24:15.943Z,99977.11
2019-02-24T03:26:49.264Z,99983.09
2019-02-24T03:29:21.080Z,99976.72
2019-02-24T03:31:55.637Z,99976.29
2019-02-24T03:34:30.389Z,99974.66
2019-02-24T03:37:04.013Z,99978.99
2019-02-24T03:39:35.835Z,99979.08
2019-02-24T03:42:13.945Z,99976.14
2019-02-24T03:44:45.780Z,99982.05
2019-02-24T03:47:17.666Z,99991.07
2019-02-24T03:49:49.540Z,99991.55
2019-02-24T03:52:21.404Z,99982.55
2019-02-24T03:54:53.235Z,99988.16
2019-02-24T03:57:29.425Z,99993.69
2019-02-24T04:00:03.794Z,99985.12
2019-02-24T04:02:36.813Z,99991.14
2019-02-24T04:05:08.674Z,99996.70
2019-02-24T04:07:40.477Z,99994.92
2019-02-24T04:10:12.306Z,99994.89
2019-02-24T04:12:44.152Z,99991.45
2019-02-24T04:15:16.071Z,99999.20
2019-02-24T04:17:47.899Z,99997.39
2019-02-24T04:20:19.745Z,100000.05
2019-02-24T04:22:51.597Z,100002.67
2019-02-24T04:25:23.418Z,100009.98
2019-02-24T04:27:55.280Z,100010.37
2019-02-24T04:30:27.130Z,100004.80
2019-02-24T04:32:58.925Z,100014.69
2019-02-24T04:35:30.742Z,100018.09
2019-02-24T04:38:02.583Z,100029.69
2019-02-24T04:40:34.394Z,100030.58
2019-02-24T04:43:06.273Z,100033.55
2019-02-24T04:45:38.100Z,100030.55
2019-02-24T04:48:09.943Z,100036.98
2019-02-24T04:50:41.855Z,100036.52
2019-02-24T04:53:13.693Z,100034.78
2019-02-24T04:55:45.550Z,100038.28
2019-02-24T04:58:19.444Z,100034.01
2019-02-24T05:00:51.269Z,100031.03
2019-02-24T05:03:23.112Z,100038.34
2019-02-24T05:05:54.936Z,100035.77
2019-02-24T05:08:26.773Z,100040.95
2019-02-24T05:10:58.596Z,100043.09
2019-02-24T05:13:30.425Z,100044.37
2019-02-24T05:16:02.258Z,100038.77
2019-02-24T05:18:34.100Z,100041.78
2019-02-24T05:21:05.942Z,100050.80
2019-02-24T05:23:37.748Z,100046.50
2019-02-24T05:26:09.573Z,100049.55
2019-02-24T05:28:41.426Z,100052.09
2019-02-24T05:31:13.262Z,100050.40
2019-02-24T05:33:45.116Z,100055.55
2019-02-24T05:36:16.937Z,100052.13
2019-02-24T05:38:48.740Z,100047.03
2019-02-24T05:41:22.050Z,100044.52
2019-02-24T05:43:53.865Z,100045.45
2019-02-24T05:46:25.691Z,100043.75
2019-02-24T05:48:57.518Z,100041.65
2019-02-24T05:51:30.451Z,100050.66
2019-02-24T05:54:02.250Z,100054.55
2019-02-24T05:56:34.091Z,100058.81
2019-02-24T05:59:05.919Z,100062.63
2019-02-24T06:01:37.793Z,100068.22
2019-02-24T06:04:09.625Z,100076.81
2019-02-24T06:06:41.468Z,100077.27
2019-02-24T06:09:13.296Z,100078.53
2019-02-24T06:11:45.166Z,100082.82
2019-02-24T06:14:17.001Z,100084.16
2019-02-24T06:16:48.822Z,100082.89
2019-02-24T06:19:20.663Z,100075.19
2019-02-24T06:21:54.086Z,100079.91
2019-02-24T06:24:25.916Z,100076.52
2019-02-24T06:26:57.715Z,100081.65
2019-02-24T06:29:29.653Z,100088.52
2019-02-24T06:32:01.467Z,100086.80
2019-02-24T06:34:33.368Z,100093.68
2019-02-24T06:37:05.169Z,100108.24
2019-02-24T06:39:38.664Z,100109.91
2019-02-24T06:42:10.567Z,100114.52
2019-02-24T06:44:42.420Z,100129.41
2019-02-24T06:47:14.239Z,100130.58
2019-02-24T06:49:46.080Z,100130.44
2019-02-24T06:52:24.458Z,100128.06
2019-02-24T06:54:56.370Z,100120.22
2019-02-24T06:57:28.190Z,100118.34
2019-02-24T07:00:00.023Z,100117.77
2019-02-24T07:02:31.858Z,100116.78
2019-02-24T07:05:03.672Z,100120.96
2019-02-24T07:07:35.545Z,100120.78
2019-02-24T07:10:08.118Z,100120.25
2019-02-24T07:12:39.965Z,100130.83
2019-02-24T07:15:11.815Z,100138.38
2019-02-24T07:17:43.674Z,100142.92
2019-02-24T07:20:15.496Z,100150.44
2019-02-24T07:22:47.338Z,100157.30
2019-02-24T07:25:19.169Z,100158.94
2019-02-24T07:27:51.039Z,100165.05
2019-02-24T07:30:23.835Z,100167.78
2019-02-24T07:32:55.801Z,100176.86
2019-02-24T07:35:27.744Z,100183.30
2019-02-24T07:37:59.565Z,100177.61
2019-02-24T07:40:31.397Z,100183.11
2019-02-24T07:43:03.258Z,100185.36
2019-02-24T07:45:35.063Z,100179.16
2019-02-24T07:48:07.005Z,100177.47
2019-02-24T07:50:38.865Z,100176.86
2019-02-24T07:53:10.693Z,100181.14
2019-02-24T07:55:42.532Z,100180.13
2019-02-24T07:58:14.375Z,100185.83
2019-02-24T08:00:46.017Z,100187.65
2019-02-24T08:03:17.858Z,100192.45
2019-02-24T08:05:49.728Z,100172.39
2019-02-24T08:08:21.568Z,100189.94
2019-02-24T08:10:53.114Z,100184.11
2019-02-24T08:13:25.065Z,100178.19
2019-02-24T08:15:56.640Z,100182.47
2019-02-24T08:18:28.480Z,100173.13
2019-02-24T08:21:00.503Z,100178.12
2019-02-24T08:23:32.041Z,100181.91
2019-02-24T08:26:03.593Z,100185.00
2019-02-24T08:28:35.212Z,100182.59
2019-02-24T08:31:06.756Z,100186.84
2019-02-24T08:33:38.452Z,100190.39
2019-02-24T08:36:12.830Z,100189.02
2019-02-24T08:38:44.464Z,100189.60
2019-02-24T08:41:16.022Z,100192.26
2019-02-24T08:43:49.206Z,100191.58
2019-02-24T08:46:20.782Z,100190.09
2019-02-24T08:48:52.398Z,100189.87
2019-02-24T08:51:24.059Z,100193.72
2019-02-24T08:53:55.788Z,100193.83
2019-02-24T08:56:27.337Z,100189.46
2019-02-24T08:58:58.936Z,100195.05
2019-02-24T09:01:30.497Z,100193.06
2019-02-24T09:04:03.871Z,100186.50
2019-02-24T09:06:35.390Z,100181.89
2019-02-24T09:09:07.254Z,100178.38
2019-02-24T09:11:38.863Z,100177.40
2019-02-24T09:14:10.480Z,100172.42
2019-02-24T09:16:42.101Z,100162.97
2019-02-24T09:19:15.868Z,100157.23
2019-02-24T09:21:47.621Z,100153.19
2019-02-24T09:24:19.205Z,100153.47
2019-02-24T09:26:50.798Z,100148.41
2019-02-24T09:29:23.589Z,100146.70
2019-02-24T09:31:55.243Z,100141.19
2019-02-24T09:34:26.853Z,100134.59
2019-02-24T09:36:58.469Z,100129.23
2019-02-24T09:39:31.163Z,100122.16
2019-02-24T09:42:02.778Z,100126.54
2019-02-24T09:44:37.117Z,100124.17
2019-02-24T09:47:08.717Z,100121.38
2019-02-24T09:49:40.272Z,100112.41
2019-02-24T09:52:11.901Z,100116.77
2019-02-24T09:54:43.486Z,100111.34
2019-02-24T09:57:15.110Z,100111.23
2019-02-24T09:59:46.676Z,100103.31
2019-02-24T10:02:18.285Z,100104.36
2019-02-24T10:04:49.866Z,100105.14
2019-02-24T10:07:21.474Z,100112.86
2019-02-24T10:09:53.045Z,100109.44
2019-02-24T10:12:24.651Z,100102.97
2019-02-24T10:14:56.284Z,100103.39
2019-02-24T10:17:27.862Z,100102.13
2019-02-24T10:19:59.541Z,100100.28
2019-02-24T10:22:43.930Z,100102.36
2019-02-24T10:25:15.631Z,100105.23
2019-02-24T10:27:47.238Z,100103.45
2019-02-24T10:30:18.904Z,100109.65
2019-02-24T10:32:50.467Z,100103.38
2019-02-24T10:35:22.100Z,100104.53
2019-02-24T10:37:53.702Z,100106.94
2019-02-24T10:40:26.406Z,100109.35
2019-02-24T10:42:58.043Z,100113.84
2019-02-24T10:45:49.788Z,100120.86
2019-02-24T10:48:21.414Z,100130.19
2019-02-24T10:50:54.527Z,100127.63
2019-02-24T10:53:28.119Z,100118.53
2019-02-24T10:55:59.513Z,100112.19
2019-02-24T10:58:34.797Z,100105.36
2019-02-24T11:01:04.525Z,100102.69
2019-02-24T11:03:36.215Z,100101.09
2019-02-24T11:06:07.805Z,100101.54
2019-02-24T11:08:39.381Z,100082.15
2019-02-24T11:11:10.994Z,100086.81
2019-02-24T11:13:42.573Z,100074.72
2019-02-24T11:16:18.463Z,100078.13
2019-02-24T11:18:50.058Z,100082.75
2019-02-24T11:21:21.605Z,100073.52
2019-02-24T11:23:53.256Z,100069.28
2019-02-24T11:26:24.887Z,100067.20
2019-02-24T11:28:56.477Z,100056.55
2019-02-24T11:31:28.094Z,100061.58
2019-02-24T11:33:59.674Z,100065.58
2019-02-24T11:36:31.458Z,100069.99
2019-02-24T11:39:03.147Z,100065.52
2019-02-24T11:41:36.354Z,100066.30
2019-02-24T11:44:07.931Z,100059.03
2019-02-24T11:46:40.630Z,100060.81
2019-02-24T11:49:12.206Z,100059.59
2019-02-24T11:51:43.793Z,100041.89
2019-02-24T11:54:15.419Z,100039.73
2019-02-24T11:56:47.010Z,100039.50
2019-02-24T11:59:18.599Z,100047.22
2019-02-24T12:01:50.165Z,100045.73
2019-02-24T12:04:21.794Z,100048.83
2019-02-24T12:06:53.381Z,100037.97
2019-02-24T12:09:24.976Z,100039.65
2019-02-24T12:11:56.580Z,100041.41
2019-02-24T12:14:28.191Z,100036.64
2019-02-24T12:16:59.793Z,100041.89
2019-02-24T12:19:31.409Z,100028.85
2019-02-24T12:22:02.999Z,100030.55
2019-02-24T12:24:34.771Z,100029.45
2019-02-24T12:27:07.437Z,100035.34
2019-02-24T12:29:39.016Z,100037.20
2019-02-24T12:32:11.719Z,100039.95
2019-02-24T12:34:43.316Z,100045.29
2019-02-24T12:37:14.943Z,100039.27
2019-02-24T12:39:46.627Z,100031.17
2019-02-24T12:42:18.233Z,100037.65
2019-02-24T12:44:49.875Z,100036.71
2019-02-24T12:47:22.550Z,100038.88
2019-02-24T12:50:02.730Z,100047.52
2019-02-24T12:52:27.522Z,100042.36
2019-02-24T12:54:59.102Z,100038.43
2019-02-24T12:57:31.822Z,100044.42
2019-02-24T13:00:03.487Z,100043.67
2019-02-24T13:02:36.027Z,100036.19
2019-02-24T13:05:08.440Z,100034.88
2019-02-24T13:07:40.005Z,100031.86
2019-02-24T13:10:13.791Z,100032.06
2019-02-24T13:12:45.417Z,100037.20
2019-02-24T13:15:17.071Z,100035.80
2019-02-24T13:17:49.701Z,100037.67
2019-02-24T13:20:21.279Z,100028.02
2019-02-24T13:22:52.909Z,100033.86
2019-02-24T13:25:24.524Z,100017.44
2019-02-24T13:27:56.082Z,100018.95
2019-02-24T13:30:27.795Z,100005.83
2019-02-24T13:32:59.403Z,100008.56
2019-02-24T13:35:31.085Z,100008.30
2019-02-24T13:38:02.728Z,100008.29
2019-02-24T13:40:34.377Z,100007.89
2019-02-24T13:43:05.954Z,100007.42
2019-02-24T13:45:37.567Z,99993.28
2019-02-24T13:48:09.158Z,99995.18
2019-02-24T13:50:40.803Z,99996.89
2019-02-24T13:53:12.395Z,99992.47
2019-02-24T13:55:45.586Z,99986.47
2019-02-24T13:58:17.171Z,99985.57
2019-02-24T14:00:48.749Z,99982.05
2019-02-24T14:03:20.395Z,99980.48
2019-02-24T14:05:51.989Z,99974.70
2019-02-24T14:08:23.592Z,99979.13
2019-02-24T14:10:55.356Z,99983.08
2019-02-24T14:13:26.945Z,99984.00
2019-02-24T14:15:58.573Z,99987.77
2019-02-24T14:18:30.157Z,99990.05
2019-02-24T14:21:01.765Z,99993.33
2019-02-24T14:23:33.332Z,99988.57
2019-02-24T14:26:06.408Z,99987.81
2019-02-24T14:28:39.724Z,99982.56
2019-02-24T14:31:11.322Z,99989.88
2019-02-24T14:33:42.918Z,99991.86
2019-02-24T14:36:14.503Z,99992.16
2019-02-24T14:38:46.062Z,99988.31
2019-02-24T14:41:17.671Z,99996.25
2019-02-24T14:43:49.254Z,99995.77
2019-02-24T14:46:20.827Z,99996.77
2019-02-24T14:48:52.421Z,100000.54
2019-02-24T14:51:24.014Z,100010.22
2019-02-24T14:53:58.220Z,100008.12
2019-02-24T14:56:28.901Z,100012.80
2019-02-24T14:59:00.463Z,100014.29
2019-02-24T15:01:33.165Z,100008.76
2019-02-24T15:04:04.781Z,100016.98
2019-02-24T15:06:36.402Z,100012.82
2019-02-24T15:09:08.876Z,100013.33
2019-02-24T15:11:40.545Z,100004.77
2019-02-24T15:14:12.114Z,100006.51
2019-02-24T15:16:43.717Z,100008.94
2019-02-24T15:19:16.871Z,100008.71
2019-02-24T15:21:48.510Z,100005.69
2019-02-24T15:24:20.095Z,100001.25
2019-02-24T15:26:51.790Z,100005.67
2019-02-24T15:29:23.381Z,99998.21
2019-02-24T15:31:54.990Z,99993.27
2019-02-24T15:34:26.684Z,99988.27
2019-02-24T15:36:58.274Z,99991.61
2019-02-24T15:39:29.846Z,99993.09
2019-02-24T15:42:01.422Z,99997.59
2019-02-24T15:44:35.899Z,100007.14
2019-02-24T15:47:07.500Z,100008.00
2019-02-24T15:49:42.160Z,100014.94
2019-02-24T15:52:13.766Z,100017.72
2019-02-24T15:54:58.221Z,100005.74
2019-02-24T15:57:29.926Z,100009.64
2019-02-24T16:00:01.537Z,100001.92
2019-02-24T16:02:34.743Z,100012.58
2019-02-24T16:05:06.601Z,100009.09
2019-02-24T16:07:38.485Z,100018.51
2019-02-24T16:10:14.240Z,100015.28
2019-02-24T16:12:47.017Z,100012.94
2019-02-24T16:15:18.633Z,100013.48
2019-02-24T16:17:53.422Z,100015.05
2019-02-24T16:20:26.370Z,100005.62
2019-02-24T16:22:58.475Z,100002.41
2019-02-24T16:25:30.054Z,99999.84
2019-02-24T16:28:02.102Z,100012.41
2019-02-24T16:30:33.840Z,100016.84
2019-02-24T16:33:10.675Z,100022.02
2019-02-24T16:35:38.737Z,100022.41
2019-02-24T16:38:11.586Z,100027.27
2019-02-24T16:40:43.168Z,100022.24
2019-02-24T16:43:14.819Z,100014.82
2019-02-24T16:45:46.465Z,100016.09
2019-02-24T16:48:18.067Z,100022.56
2019-02-24T16:50:50.136Z,100025.00
2019-02-24T16:53:21.786Z,100026.99
2019-02-24T16:55:53.374Z,100029.53
2019-02-24T16:58:25.055Z,100040.14
2019-02-24T17:00:56.620Z,100044.42
2019-02-24T17:03:28.700Z,100047.98
2019-02-24T17:06:00.261Z,100052.41
2019-02-24T17:08:31.912Z,100047.02
2019-02-24T17:11:07.371Z,100052.66
2019-02-24T17:13:36.742Z,100060.09
2019-02-24T17:16:08.438Z,100063.17
2019-02-24T17:18:40.026Z,100066.96
2019-02-24T17:21:11.616Z,100072.59
2019-02-24T17:23:49.741Z,100071.56
2019-02-24T17:26:16.550Z,100083.31
2019-02-24T17:28:48.135Z,100082.97
2019-02-24T17:31:28.058Z,100091.00
2019-02-24T17:33:53.033Z,100097.14
2019-02-24T17:36:27.167Z,100101.18
2019-02-24T17:38:58.785Z,100098.75
2019-02-24T17:41:30.423Z,100099.58
2019-02-24T17:44:02.944Z,100099.69
2019-02-24T17:46:36.034Z,100110.31
2019-02-24T17:49:08.737Z,100106.28
2019-02-24T17:51:41.426Z,100105.38
2019-02-24T17:54:12.995Z,100111.59
2019-02-24T17:56:47.279Z,100116.70
2019-02-24T17:59:18.867Z,100113.91
2019-02-24T18:01:50.479Z,100127.05
2019-02-24T18:04:23.572Z,100126.56
2019-02-24T18:06:58.169Z,100125.95
2019-02-24T18:09:29.789Z,100134.41
2019-02-24T18:12:02.504Z,100139.44
2019-02-24T18:14:34.087Z,100131.41
2019-02-24T18:17:05.797Z,100131.61
2019-02-24T18:19:37.395Z,100120.62
2019-02-24T18:22:09.022Z,100115.94
2019-02-24T18:24:44.341Z,100121.94
2019-02-24T18:27:20.155Z,100123.39
2019-02-24T18:29:51.683Z,100119.00
2019-02-24T18:32:24.610Z,100117.91
2019-02-24T18:34:56.401Z,100113.75
2019-02-24T18:37:28.023Z,100117.70
2019-02-24T18:40:04.312Z,100115.16
2019-02-24T18:42:35.899Z,100121.56
2019-02-24T18:45:10.755Z,100124.79
2019-02-24T18:47:42.382Z,100123.95
2019-02-24T18:50:13.993Z,100124.17
2019-02-24T18:52:45.716Z,100118.13
2019-02-24T18:55:18.636Z,100117.38
2019-02-24T18:57:52.014Z,100113.47
2019-02-24T19:00:23.630Z,100109.61
2019-02-24T19:02:56.900Z,100100.55
2019-02-24T19:05:30.783Z,100108.94
2019-02-24T19:08:05.954Z,100110.82
2019-02-24T19:10:37.568Z,100117.81
2019-02-24T19:13:14.879Z,100124.52
2019-02-24T19:15:46.435Z,100118.29
2019-02-24T19:18:19.231Z,100114.84
2019-02-24T19:20:51.824Z,100108.61
2019-02-24T19:23:25.188Z,100107.88
2019-02-24T19:25:56.869Z,100113.55
2019-02-24T19:28:28.515Z,100121.56
2019-02-24T19:31:00.216Z,100128.29
2019-02-24T19:33:31.837Z,100134.64
2019-02-24T19:36:05.209Z,100123.20
2019-02-24T19:38:36.865Z,100132.34
2019-02-24T19:41:08.817Z,100135.82
2019-02-24T19:43:40.452Z,100138.50
2019-02-24T19:46:12.053Z,100136.27
2019-02-24T19:48:44.010Z,100130.44
2019-02-24T19:51:18.348Z,100134.00
2019-02-24T19:53:51.569Z,100136.17
2019-02-24T19:56:23.183Z,100137.05
2019-02-24T19:58:54.760Z,100135.63
2019-02-24T20:01:26.318Z,100135.86
2019-02-24T20:03:58.225Z,100131.08
2019-02-24T20:06:29.890Z,100134.36
2019-02-24T20:09:01.523Z,100132.75
2019-02-24T20:11:36.037Z,100129.63
2019-02-24T20:14:07.638Z,100132.59
2019-02-24T20:16:44.409Z,100135.51
2019-02-24T20:19:16.042Z,100135.59
2019-02-24T20:21:51.642Z,100127.45
2019-02-24T20:24:25.914Z,100121.19
2019-02-24T20:27:00.286Z,100132.14
2019-02-24T20:29:35.993Z,100131.48
2019-02-24T20:32:07.548Z,100137.14
2019-02-24T20:34:39.163Z,100142.13
2019-02-24T20:37:10.797Z,100132.51
2019-02-24T20:39:44.756Z,100122.58
2019-02-24T20:42:16.376Z,100124.83
2019-02-24T20:44:48.006Z,100121.78
2019-02-24T20:47:19.582Z,100124.03
2019-02-24T20:49:51.185Z,100120.91
2019-02-24T20:52:25.264Z,100126.94
2019-02-24T20:54:56.926Z,100129.68
2019-02-24T20:57:34.827Z,100125.44
2019-02-24T21:00:22.473Z,100120.42
2019-02-24T21:02:55.079Z,100124.41
2019-02-24T21:05:26.662Z,100129.25
2019-02-24T21:08:08.029Z,100121.56
2019-02-24T21:10:42.197Z,100134.67
2019-02-24T21:13:16.781Z,100127.64
2019-02-24T21:15:48.565Z,100129.52
2019-02-24T21:18:22.537Z,100127.11
2019-02-24T21:21:00.181Z,100131.91
2019-02-24T21:23:35.933Z,100135.98
2019-02-24T21:26:10.861Z,100127.94
2019-02-24T21:28:42.461Z,100125.89
2019-02-24T21:31:17.687Z,100125.14
2019-02-24T21:33:54.783Z,100120.49
2019-02-24T21:36:27.761Z,100121.03
2019-02-24T21:39:02.380Z,100121.94
2019-02-24T21:41:35.642Z,100118.19
2019-02-24T21:44:08.871Z,100124.70
2019-02-24T21:46:40.489Z,100129.01
2019-02-24T21:49:13.051Z,100123.91
2019-02-24T21:51:44.662Z,100119.24
2019-02-24T21:54:19.240Z,100122.39
2019-02-24T21:56:50.868Z,100127.20
2019-02-24T21:59:25.410Z,100127.26
2019-02-24T22:01:56.992Z,100126.83
2019-02-24T22:04:30.851Z,100117.80
2019-02-24T22:07:03.967Z,100120.86
2019-02-24T22:09:35.542Z,100111.41
2019-02-24T22:12:07.441Z,100123.59
2019-02-24T22:14:40.278Z,100126.66
2019-02-24T22:17:11.752Z,100120.60
2019-02-24T22:19:49.461Z,100119.86
2019-02-24T22:22:21.165Z,100123.44
2019-02-24T22:24:52.733Z,100120.87
2019-02-24T22:27:24.324Z,100122.55
2019-02-24T22:29:55.890Z,100129.02
2019-02-24T22:32:27.479Z,100137.33
2019-02-24T22:34:59.087Z,100140.91
2019-02-24T22:37:31.943Z,100139.27
2019-02-24T22:40:08.409Z,100138.05
2019-02-24T22:42:39.896Z,100142.25
2019-02-24T22:45:16.818Z,100142.78
2019-02-24T22:47:48.726Z,100137.16
2019-02-24T22:50:20.299Z,100136.00
2019-02-24T22:52:56.937Z,100139.52
2019-02-24T22:55:31.647Z,100141.13
2019-02-24T22:58:04.842Z,100138.92
2019-02-24T23:01:09.980Z,100141.08
2019-02-24T23:03:45.734Z,100140.78
2019-02-24T23:06:19.495Z,100143.93
2019-02-24T23:08:51.351Z,100148.20
2019-02-24T23:11:23.051Z,100143.45
2019-02-24T23:13:58.760Z,100145.59
2019-02-24T23:16:30.327Z,100145.59
2019-02-24T23:19:01.933Z,100139.53
2019-02-24T23:21:35.245Z,100140.38
2019-02-24T23:24:09.158Z,100139.11
2019-02-24T23:26:40.855Z,100130.44
2019-02-24T23:29:12.436Z,100139.17
2019-02-24T23:31:45.832Z,100135.38
2019-02-24T23:34:18.645Z,100130.23
2019-02-24T23:36:51.796Z,100130.28
2019-02-24T23:39:25.439Z,100128.13
2019-02-24T23:41:56.985Z,100129.55
2019-02-24T23:44:28.557Z,100126.94
2019-02-24T23:47:01.412Z,100129.50
2019-02-24T23:49:38.394Z,100140.75
2019-02-24T23:52:09.981Z,100137.75
2019-02-24T23:54:41.621Z,100142.56
2019-02-24T23:57:14.771Z,100131.75
2019-02-24T23:59:48.210Z,100131.75
